Time;durP1;ratioP1;P1;durP2;ratioP2;P2;SDS_P1;SDS_P2;PMS_P1;PMS_P2;Temp;Humidity;BMP_temperature;BMP_pressure;BME280_temperature;BME280_humidity;BME280_pressure;Samples;Min_cycle;Max_cycle;Signal;HPM_P1;HPM_P2
2023/08/11 00:00:21;;;;;;;7.55;2.90;;;;;;;18.63;73.76;99635.31;5032020;28;20028;-73
2023/08/11 00:02:49;;;;;;;3.33;3.00;;;;;;;18.71;73.34;99641.88;5030960;28;20081;-73
2023/08/11 00:05:17;;;;;;;3.22;2.67;;;;;;;18.70;73.44;99639.41;5030606;28;20025;-73
2023/08/11 00:07:43;;;;;;;4.78;3.25;;;;;;;18.63;73.79;99640.97;5032000;28;20031;-72
2023/08/11 00:10:09;;;;;;;5.60;3.47;;;;;;;18.60;73.63;99636.09;5031894;28;20056;-73
2023/08/11 00:12:35;;;;;;;2.70;2.50;;;;;;;18.61;73.57;99640.56;5029596;28;20485;-72
2023/08/11 00:15:01;;;;;;;3.70;2.78;;;;;;;18.44;74.07;99641.97;5031192;28;20543;-73
2023/08/11 00:17:27;;;;;;;3.95;3.15;;;;;;;18.30;74.70;99636.13;5032000;28;20087;-73
2023/08/11 00:19:52;;;;;;;4.93;2.88;;;;;;;18.28;74.53;99644.16;5029597;28;20116;-73
2023/08/11 00:22:18;;;;;;;5.13;3.17;;;;;;;18.12;75.55;99645.16;5030992;28;20083;-73
2023/08/11 00:24:43;;;;;;;6.68;3.60;;;;;;;18.13;75.38;99651.66;5025009;28;20037;-73
2023/08/11 00:27:08;;;;;;;6.65;3.63;;;;;;;18.15;75.20;99650.03;5012062;28;20473;-73
2023/08/11 00:29:34;;;;;;;4.47;2.70;;;;;;;18.22;74.85;99650.16;5026796;28;20056;-73
2023/08/11 00:32:00;;;;;;;4.68;3.28;;;;;;;18.06;75.30;99647.50;5031297;28;20048;-73
2023/08/11 00:34:25;;;;;;;8.55;3.03;;;;;;;18.12;75.18;99650.81;5046675;28;20047;-73
2023/08/11 00:36:51;;;;;;;4.20;2.83;;;;;;;18.16;75.20;99645.22;5031736;28;20035;-73
2023/08/11 00:39:16;;;;;;;8.93;3.80;;;;;;;18.14;75.32;99647.63;5031418;28;20026;-73
2023/08/11 00:41:42;;;;;;;3.47;3.17;;;;;;;17.91;75.18;99634.31;5030646;28;20045;-73
2023/08/11 00:44:07;;;;;;;4.78;3.17;;;;;;;17.89;75.99;99636.72;5030122;28;20064;-73
2023/08/11 00:46:33;;;;;;;7.25;3.55;;;;;;;17.91;75.26;99651.28;5015312;28;20026;-73
2023/08/11 00:48:59;;;;;;;3.33;2.90;;;;;;;18.01;74.77;99650.66;5011567;28;20026;-74
2023/08/11 00:51:25;;;;;;;5.43;2.97;;;;;;;18.03;74.45;99633.28;5011629;28;20087;-73
2023/08/11 00:53:51;;;;;;;3.60;3.22;;;;;;;18.13;73.34;99640.31;5011407;28;20151;-73
2023/08/11 00:56:24;;;;;;;3.92;3.20;;;;;;;18.15;73.18;99638.72;5029761;28;20471;-73
2023/08/11 00:58:51;;;;;;;5.10;3.03;;;;;;;17.97;72.94;99635.59;5031216;28;20036;-73
2023/08/11 01:01:16;;;;;;;5.32;3.25;;;;;;;18.03;72.65;99641.78;5028933;28;20423;-73
2023/08/11 01:03:47;;;;;;;4.00;2.95;;;;;;;18.06;72.63;99641.84;5029913;28;20021;-73
2023/08/11 01:06:23;;;;;;;2.80;2.50;;;;;;;18.07;72.42;99651.16;5030491;28;20551;-73
2023/08/11 01:09:25;;;;;;;6.95;2.55;;;;;;;18.20;72.39;99657.41;5029785;28;20877;-73
2023/08/11 01:12:11;;;;;;;3.10;2.80;;;;;;;18.14;72.33;99653.28;5030530;28;20060;-73
2023/08/11 01:14:48;;;;;;;2.72;2.47;;;;;;;18.15;72.16;99646.41;5027968;28;20080;-73
2023/08/11 01:17:16;;;;;;;5.25;3.38;;;;;;;18.07;72.33;99643.47;5011381;28;20029;-73
2023/08/11 01:19:42;;;;;;;3.33;3.03;;;;;;;17.96;72.13;99648.13;5029939;28;20077;-73
2023/08/11 01:22:14;;;;;;;7.47;3.50;;;;;;;17.93;72.50;99646.91;5010298;28;20033;-73
2023/08/11 01:24:42;;;;;;;7.97;4.10;;;;;;;18.01;71.67;99649.81;5013824;28;20088;-73
2023/08/11 01:27:08;;;;;;;6.68;4.50;;;;;;;18.19;71.12;99655.75;5030782;28;20044;-73
2023/08/11 01:29:34;;;;;;;10.05;3.83;;;;;;;18.20;70.90;99663.88;5029667;28;20411;-72
2023/08/11 01:31:59;;;;;;;5.68;4.10;;;;;;;18.22;70.99;99652.16;5029613;28;20120;-73
2023/08/11 01:34:25;;;;;;;4.38;3.92;;;;;;;18.13;70.58;99652.44;5025244;28;20033;-73
2023/08/11 01:37:05;;;;;;;4.43;3.78;;;;;;;18.08;70.99;99655.63;5011321;28;20053;-73
2023/08/11 01:39:32;;;;;;;5.88;4.15;;;;;;;18.00;71.17;99654.66;5046723;28;20030;-73
2023/08/11 01:41:58;;;;;;;6.85;3.88;;;;;;;18.05;71.03;99656.41;5027293;28;20046;-73
2023/08/11 01:44:25;;;;;;;6.57;4.10;;;;;;;17.97;71.13;99666.72;5011126;28;20544;-73
2023/08/11 01:46:56;;;;;;;9.77;3.78;;;;;;;18.03;71.03;99664.44;5011189;28;20049;-73
2023/08/11 01:49:24;;;;;;;7.00;3.47;;;;;;;18.08;70.78;99673.41;5028436;28;20064;-73
2023/08/11 01:51:50;;;;;;;5.07;3.55;;;;;;;18.02;70.59;99672.09;5030667;28;20408;-73
2023/08/11 01:54:15;;;;;;;7.03;3.85;;;;;;;17.95;70.53;99652.97;5030380;28;20041;-73
2023/08/11 01:56:42;;;;;;;7.47;4.22;;;;;;;17.81;70.81;99669.75;5015936;28;20033;-73
2023/08/11 01:59:13;;;;;;;4.95;3.55;;;;;;;17.59;72.31;99662.91;5010974;28;20038;-73
2023/08/11 02:01:39;;;;;;;;;;;;;;;17.58;72.45;99667.75;5011565;28;20109;-73
2023/08/11 02:04:05;;;;;;;4.03;3.05;;;;;;;17.49;72.61;99665.16;5010582;28;20016;-72
2023/08/11 02:06:30;;;;;;;4.70;3.10;;;;;;;17.55;72.43;99668.50;5010704;28;20038;-73
2023/08/11 02:08:56;;;;;;;6.25;3.20;;;;;;;17.61;72.47;99674.66;5028054;28;20025;-73
2023/08/11 02:11:22;;;;;;;4.55;3.08;;;;;;;17.78;71.89;99676.13;5029998;28;20120;-73
2023/08/11 02:13:48;;;;;;;3.97;3.03;;;;;;;17.86;71.59;99671.41;5029044;28;20025;-73
2023/08/11 02:16:13;;;;;;;3.80;2.97;;;;;;;17.98;70.88;99670.38;5045574;28;20029;-73
2023/08/11 02:18:39;;;;;;;2.90;2.60;;;;;;;17.91;70.93;99666.25;5045653;28;20037;-73
2023/08/11 02:21:06;;;;;;;4.68;3.22;;;;;;;17.81;71.31;99659.22;5030393;28;20029;-73
2023/08/11 02:23:32;;;;;;;6.47;3.40;;;;;;;17.80;71.29;99657.59;5027178;28;20415;-73
2023/08/11 02:25:57;;;;;;;5.75;3.55;;;;;;;17.72;71.58;99653.00;5029005;28;20041;-73
2023/08/11 02:28:23;;;;;;;9.75;3.47;;;;;;;17.67;71.95;99648.50;5013135;28;20030;-73
2023/08/11 02:30:48;;;;;;;7.53;3.05;;;;;;;17.66;71.88;99646.06;5012911;28;20030;-72
2023/08/11 02:33:18;;;;;;;4.47;3.17;;;;;;;17.61;72.18;99649.19;5012830;28;20022;-73
2023/08/11 02:35:44;;;;;;;4.85;3.15;;;;;;;17.77;71.67;99655.53;5014146;28;20026;-73
2023/08/11 02:38:09;;;;;;;4.18;2.80;;;;;;;17.73;71.74;99651.81;5027031;28;20114;-73
2023/08/11 02:40:35;;;;;;;8.55;3.65;;;;;;;17.73;71.94;99665.16;5032564;28;20084;-73
2023/08/11 02:43:02;;;;;;;4.82;3.17;;;;;;;17.78;71.71;99659.16;5033608;28;20036;-72
2023/08/11 02:45:27;;;;;;;5.32;2.80;;;;;;;17.80;71.71;99668.91;5032338;28;20028;-73
2023/08/11 02:47:53;;;;;;;3.42;3.00;;;;;;;17.86;71.41;99680.72;5033278;28;20107;-73
2023/08/11 02:50:18;;;;;;;3.63;2.67;;;;;;;17.75;71.62;99674.06;5033550;28;20036;-73
2023/08/11 02:52:44;;;;;;;6.68;2.88;;;;;;;17.77;71.46;99680.16;5033506;28;20037;-73
2023/08/11 02:55:11;;;;;;;5.65;3.10;;;;;;;17.78;71.50;99685.44;5033413;28;20389;-73
2023/08/11 02:57:37;;;;;;;3.20;2.90;;;;;;;17.30;73.15;99690.69;5029188;28;20028;-73
2023/08/11 03:00:13;;;;;;;7.28;3.22;;;;;;;17.44;72.99;99690.94;5013796;28;20034;-73
2023/08/11 03:02:42;;;;;;;5.90;3.00;;;;;;;17.51;72.76;99691.06;5012417;28;20485;-73
2023/08/11 03:05:09;;;;;;;6.67;3.73;;;;;;;17.46;72.61;99679.25;5012351;28;20021;-73
2023/08/11 03:07:36;;;;;;;4.75;3.10;;;;;;;17.45;72.26;99681.25;5026062;28;20033;-72
2023/08/11 03:10:03;;;;;;;7.38;3.20;;;;;;;17.28;72.77;99674.09;5033336;28;20033;-72
2023/08/11 03:12:28;;;;;;;5.30;3.22;;;;;;;17.34;72.40;99678.25;5031430;28;20033;-72
2023/08/11 03:14:54;;;;;;;6.40;2.95;;;;;;;17.34;73.00;99695.22;5032076;28;20090;-73
2023/08/11 03:17:19;;;;;;;4.97;3.67;;;;;;;17.33;72.30;99693.59;5033015;28;20029;-72
2023/08/11 03:19:45;;;;;;;3.47;3.17;;;;;;;17.14;72.96;99683.13;5032184;28;20514;-73
2023/08/11 03:22:10;;;;;;;8.88;3.17;;;;;;;17.24;72.86;99687.34;5032823;28;20022;-73
2023/08/11 03:24:36;;;;;;;12.20;3.45;;;;;;;17.25;72.96;99689.81;5033020;28;20026;-73
2023/08/11 03:27:01;;;;;;;7.57;3.65;;;;;;;17.45;72.75;99698.22;5032948;28;20041;-73
2023/08/11 03:29:26;;;;;;;21.52;4.15;;;;;;;17.40;72.51;99705.00;5032747;28;20040;-73
2023/08/11 03:31:52;;;;;;;31.00;4.60;;;;;;;17.44;72.25;99701.44;5031557;28;20029;-72
2023/08/11 03:34:17;;;;;;;9.45;3.30;;;;;;;17.38;72.60;99703.75;5032933;28;20455;-73
2023/08/11 03:36:44;;;;;;;5.63;3.20;;;;;;;17.42;73.02;99710.28;5030238;28;20037;-73
2023/08/11 03:39:10;;;;;;;11.93;4.03;;;;;;;17.40;72.91;99704.19;5030253;28;20025;-73
2023/08/11 03:41:36;;;;;;;3.25;2.95;;;;;;;17.39;72.71;99705.41;5032511;28;20079;-72
2023/08/11 03:44:01;;;;;;;6.35;3.42;;;;;;;17.37;73.10;99704.94;5032655;28;20029;-72
2023/08/11 03:46:27;;;;;;;10.85;4.55;;;;;;;17.24;73.23;99705.09;5031244;28;20032;-72
2023/08/11 03:48:52;;;;;;;9.90;3.97;;;;;;;17.10;73.80;99702.84;5031170;28;20131;-73
2023/08/11 03:51:18;;;;;;;11.02;3.78;;;;;;;17.20;73.63;99709.88;5031000;28;20120;-72
2023/08/11 03:53:43;;;;;;;7.13;3.63;;;;;;;17.29;73.53;99706.00;5026310;28;20037;-73
2023/08/11 03:56:08;;;;;;;18.77;3.85;;;;;;;17.17;74.60;99704.16;5016724;28;20033;-73
2023/08/11 03:58:35;;;;;;;8.50;3.70;;;;;;;17.38;73.66;99720.72;5032401;28;20546;-72
2023/08/11 04:01:02;;;;;;;9.02;3.85;;;;;;;17.51;73.04;99715.69;5032034;28;20025;-73
2023/08/11 04:03:31;;;;;;;7.78;3.13;;;;;;;17.61;72.50;99717.06;5031033;28;20037;-73
2023/08/11 04:05:57;;;;;;;9.48;4.70;;;;;;;17.65;72.22;99706.66;5030877;28;20499;-73
2023/08/11 04:08:24;;;;;;;5.32;3.40;;;;;;;17.74;71.77;99715.72;5030409;28;20037;-72
2023/08/11 04:10:50;;;;;;;4.80;3.10;;;;;;;17.90;71.20;99704.22;5030551;28;20025;-72
2023/08/11 04:13:15;;;;;;;7.93;3.42;;;;;;;18.02;70.84;99716.53;5025207;28;20041;-73
2023/08/11 04:15:41;;;;;;;6.15;3.05;;;;;;;18.07;70.32;99719.88;5022313;28;20025;-72
2023/08/11 04:18:06;;;;;;;5.15;3.20;;;;;;;18.16;70.35;99725.31;5012214;28;20025;-73
2023/08/11 04:20:33;;;;;;;13.43;3.67;;;;;;;18.21;70.33;99718.47;5025146;28;20408;-72
2023/08/11 04:22:58;;;;;;;7.80;3.25;;;;;;;18.31;70.03;99725.50;5027103;28;20052;-72
2023/08/11 04:25:24;;;;;;;4.45;3.10;;;;;;;18.25;69.87;99733.50;5026610;28;20063;-70
2023/08/11 04:27:49;;;;;;;5.78;2.72;;;;;;;18.34;69.78;99728.41;5043622;28;20072;-71
2023/08/11 04:30:15;;;;;;;10.50;4.03;;;;;;;18.22;69.96;99726.59;5044982;28;20099;-73
2023/08/11 04:32:40;;;;;;;14.35;3.53;;;;;;;18.14;70.50;99729.69;5028972;28;20500;-73
2023/08/11 04:35:07;;;;;;;5.07;2.80;;;;;;;18.14;70.64;99738.19;5045617;28;20035;-71
2023/08/11 04:37:34;;;;;;;10.27;3.70;;;;;;;17.92;71.44;99740.63;5026541;28;20028;-73
2023/08/11 04:39:59;;;;;;;8.07;3.33;;;;;;;17.85;71.57;99726.34;5031426;28;20029;-73
2023/08/11 04:42:25;;;;;;;12.90;3.70;;;;;;;17.65;72.23;99743.41;5031325;28;20028;-74
2023/08/11 04:44:50;;;;;;;3.53;3.13;;;;;;;17.81;71.88;99746.13;5030194;28;20104;-73
2023/08/11 04:47:16;;;;;;;8.93;3.78;;;;;;;17.85;72.00;99743.34;5027637;28;20033;-73
2023/08/11 04:49:43;;;;;;;9.32;3.60;;;;;;;17.88;71.79;99732.09;5015248;28;20500;-74
2023/08/11 04:52:09;;;;;;;4.13;3.42;;;;;;;17.99;71.81;99749.25;5025310;28;20424;-72
2023/08/11 04:54:34;;;;;;;9.90;3.65;;;;;;;18.12;71.33;99740.59;5043588;28;20030;-74
2023/08/11 04:57:00;;;;;;;9.88;3.83;;;;;;;18.19;71.48;99749.19;5027424;28;20063;-73
2023/08/11 04:59:25;;;;;;;10.13;3.80;;;;;;;18.24;71.18;99740.38;5031375;28;20074;-73
2023/08/11 05:01:50;;;;;;;5.88;3.55;;;;;;;18.35;71.37;99737.69;5031292;28;20021;-73
2023/08/11 05:04:16;;;;;;;16.20;4.10;;;;;;;18.67;71.10;99740.97;5030114;28;20026;-73
2023/08/11 05:06:41;;;;;;;7.63;3.72;;;;;;;19.01;70.69;99747.91;5045400;28;20511;-73
2023/08/11 05:09:07;;;;;;;7.35;3.63;;;;;;;19.03;68.92;99749.16;5027939;28;20389;-73
2023/08/11 05:11:32;;;;;;;6.40;3.67;;;;;;;19.16;68.40;99740.41;5029844;28;20026;-74
2023/08/11 05:13:58;;;;;;;4.68;4.18;;;;;;;19.38;68.12;99738.63;5029784;28;20492;-73
2023/08/11 05:16:24;;;;;;;5.15;3.72;;;;;;;19.45;67.31;99738.69;5029855;28;20385;-73
2023/08/11 05:18:49;;;;;;;7.07;4.97;;;;;;;19.55;66.13;99740.00;5028731;28;20025;-73
2023/08/11 05:21:17;;;;;;;8.48;4.60;;;;;;;19.68;65.96;99749.06;5031128;28;20399;-73
2023/08/11 05:23:42;;;;;;;6.28;4.65;;;;;;;19.78;66.34;99748.31;5029513;28;20072;-74
2023/08/11 05:26:08;;;;;;;6.60;5.43;;;;;;;20.10;66.48;99746.19;5026982;28;20130;-74
2023/08/11 05:28:34;;;;;;;12.50;5.50;;;;;;;20.14;65.15;99739.31;5023688;28;20032;-72
2023/08/11 05:31:01;;;;;;;15.23;7.13;;;;;;;20.30;65.07;99750.41;5026883;28;20026;-79
2023/08/11 05:33:26;;;;;;;9.52;5.43;;;;;;;20.36;64.42;99753.69;5030273;28;20171;-77
2023/08/11 05:35:52;;;;;;;10.27;6.10;;;;;;;20.20;65.96;99757.59;5027531;28;20033;-77
2023/08/11 05:38:21;;;;;;;8.68;5.13;;;;;;;20.42;65.08;99748.44;5023020;28;20025;-79
2023/08/11 05:40:47;;;;;;;4.75;3.90;;;;;;;20.43;64.79;99750.88;5024073;28;20103;-75
2023/08/11 05:43:13;;;;;;;10.73;4.18;;;;;;;20.36;65.13;99738.66;5025890;28;20451;-79
2023/08/11 05:45:38;;;;;;;6.18;4.53;;;;;;;20.22;65.27;99742.22;5026533;28;20029;-78
2023/08/11 05:48:04;;;;;;;7.13;4.13;;;;;;;19.84;66.37;99739.47;5023398;28;20030;-73
2023/08/11 05:50:29;;;;;;;12.75;4.22;;;;;;;19.84;66.56;99739.47;5029161;28;20061;-78
2023/08/11 05:52:56;;;;;;;9.85;3.97;;;;;;;20.06;66.15;99746.97;5025687;28;20140;-76
2023/08/11 05:55:22;;;;;;;4.68;3.75;;;;;;;20.16;66.21;99758.81;5029781;28;20021;-71
2023/08/11 05:57:48;;;;;;;5.13;4.10;;;;;;;20.27;64.86;99756.03;5025154;28;20087;-72
2023/08/11 06:00:14;;;;;;;8.23;4.47;;;;;;;20.21;65.15;99752.75;5044342;28;20558;-72
2023/08/11 06:02:40;;;;;;;9.43;4.38;;;;;;;20.27;64.95;99756.88;5033227;28;20021;-72
2023/08/11 06:05:05;;;;;;;5.95;3.83;;;;;;;20.24;65.53;99749.13;5029656;28;20036;-72
2023/08/11 06:07:31;;;;;;;7.72;4.15;;;;;;;20.15;65.37;99754.31;5033911;28;20443;-72
2023/08/11 06:09:56;;;;;;;6.32;3.90;;;;;;;20.39;65.35;99752.06;5032903;28;20429;-72
2023/08/11 06:12:22;;;;;;;7.72;4.13;;;;;;;20.40;64.64;99751.66;5032080;28;20026;-72
2023/08/11 06:14:47;;;;;;;9.07;4.90;;;;;;;20.54;64.61;99770.84;5041621;28;20025;-72
2023/08/11 06:17:13;;;;;;;5.45;4.07;;;;;;;20.59;65.05;99766.81;5040622;28;20450;-72
2023/08/11 06:19:38;;;;;;;11.88;4.60;;;;;;;20.57;63.88;99770.03;5043933;28;20021;-73
2023/08/11 06:22:04;;;;;;;3.95;3.15;;;;;;;20.37;61.93;99771.53;5044587;28;20035;-74
2023/08/11 06:24:29;;;;;;;4.47;3.88;;;;;;;20.38;62.68;99759.78;5039155;28;20036;-73
2023/08/11 06:26:55;;;;;;;10.05;3.10;;;;;;;20.59;61.94;99763.97;5037345;28;20037;-71
2023/08/11 06:29:20;;;;;;;8.27;3.17;;;;;;;20.67;61.68;99759.16;5035274;28;20026;-72
2023/08/11 06:31:46;;;;;;;5.70;3.28;;;;;;;20.61;61.41;99759.50;5050140;28;20024;-71
2023/08/11 06:34:12;;;;;;;5.05;3.85;;;;;;;20.80;61.98;99766.13;5047195;28;20030;-72
2023/08/11 06:36:38;;;;;;;6.10;3.33;;;;;;;21.00;61.51;99763.00;5040108;28;20033;-71
2023/08/11 06:39:04;;;;;;;6.03;3.45;;;;;;;20.93;61.11;99768.66;5039800;28;20480;-71
2023/08/11 06:41:29;;;;;;;5.03;3.75;;;;;;;21.15;61.38;99761.00;5035501;28;20041;-71
2023/08/11 06:43:56;;;;;;;8.85;3.38;;;;;;;21.37;59.83;99770.44;5032933;28;20025;-72
2023/08/11 06:46:21;;;;;;;5.05;3.00;;;;;;;21.45;59.94;99772.06;5036224;28;20199;-72
2023/08/11 06:48:47;;;;;;;5.63;3.55;;;;;;;21.61;58.66;99765.22;5033401;28;20021;-71
2023/08/11 06:51:12;;;;;;;6.10;3.25;;;;;;;21.77;58.40;99775.44;5041241;28;20389;-72
2023/08/11 06:53:38;;;;;;;6.32;3.40;;;;;;;21.89;57.60;99766.50;5036738;28;20029;-71
2023/08/11 06:56:03;;;;;;;5.68;3.20;;;;;;;21.99;56.09;99773.41;5019830;28;20013;-72
2023/08/11 06:58:29;;;;;;;6.55;4.15;;;;;;;21.99;54.57;99771.38;5039800;28;20087;-72
2023/08/11 07:00:54;;;;;;;9.43;2.97;;;;;;;22.16;55.48;99771.78;5049086;28;20111;-72
2023/08/11 07:03:20;;;;;;;8.55;3.55;;;;;;;22.27;55.03;99772.59;5038640;28;20107;-71
2023/08/11 07:05:45;;;;;;;5.20;3.15;;;;;;;22.29;55.02;99778.69;5032798;28;20028;-72
2023/08/11 07:08:11;;;;;;;5.07;2.75;;;;;;;22.46;54.56;99776.25;5056304;28;20068;-72
2023/08/11 07:10:39;;;;;;;6.45;2.90;;;;;;;22.75;53.79;99775.41;5031439;28;20033;-72
2023/08/11 07:13:05;;;;;;;3.75;2.90;;;;;;;22.84;53.99;99765.19;5031698;28;20033;-72
2023/08/11 07:15:30;;;;;;;4.93;2.90;;;;;;;22.85;51.82;99772.50;5046807;28;20032;-72
2023/08/11 07:17:55;;;;;;;6.80;2.95;;;;;;;22.53;52.51;99769.75;5034638;28;20033;-72
2023/08/11 07:20:21;;;;;;;4.18;2.90;;;;;;;22.92;52.43;99776.53;5041081;28;20033;-72
2023/08/11 07:22:46;;;;;;;6.72;2.85;;;;;;;23.05;52.25;99765.50;5040667;28;20017;-72
2023/08/11 07:25:12;;;;;;;7.00;3.05;;;;;;;23.17;51.65;99769.91;5037200;28;20017;-72
2023/08/11 07:27:37;;;;;;;4.32;2.67;;;;;;;23.24;51.43;99761.34;5040723;28;20519;-72
2023/08/11 07:30:04;;;;;;;3.30;2.30;;;;;;;23.34;48.24;99762.53;5046318;28;20027;-72
2023/08/11 07:32:29;;;;;;;4.00;2.38;;;;;;;23.45;48.77;99765.34;5047757;28;20035;-72
2023/08/11 07:34:55;;;;;;;3.95;2.60;;;;;;;23.64;48.17;99781.13;5036016;28;20426;-72
2023/08/11 07:37:20;;;;;;;2.58;1.98;;;;;;;23.41;45.05;99771.91;5031398;28;20516;-72
2023/08/11 07:39:46;;;;;;;5.00;1.80;;;;;;;23.11;46.84;99770.38;5032947;28;20032;-72
2023/08/11 07:42:11;;;;;;;3.63;2.22;;;;;;;23.55;46.74;99773.03;5027994;28;20044;-72
2023/08/11 07:44:37;;;;;;;5.35;2.17;;;;;;;23.58;45.44;99769.34;5026349;28;20484;-72
2023/08/11 07:47:02;;;;;;;3.88;2.13;;;;;;;23.81;44.64;99774.47;5018288;28;20038;-72
2023/08/11 07:49:28;;;;;;;2.50;1.60;;;;;;;23.84;44.46;99775.69;5045592;28;20025;-72
2023/08/11 07:51:54;;;;;;;2.60;2.08;;;;;;;23.78;44.89;99765.97;5035377;28;20025;-72
2023/08/11 07:54:20;;;;;;;5.00;2.50;;;;;;;23.83;45.44;99762.63;5036047;28;20033;-72
2023/08/11 07:56:45;;;;;;;2.97;1.90;;;;;;;24.03;43.88;99759.25;5037423;28;20301;-72
2023/08/11 07:59:11;;;;;;;2.78;1.73;;;;;;;24.06;44.91;99764.13;5030406;28;20407;-72
2023/08/11 08:01:37;;;;;;;4.93;2.03;;;;;;;24.40;43.67;99772.00;5032480;28;20407;-72
2023/08/11 08:04:03;;;;;;;2.38;1.88;;;;;;;23.95;43.31;99765.00;5048030;28;20025;-72
2023/08/11 08:06:32;;;;;;;2.47;1.70;;;;;;;24.43;42.90;99768.28;5033364;28;20563;-72
2023/08/11 08:08:58;;;;;;;2.28;1.80;;;;;;;24.45;43.32;99765.00;5036011;28;20451;-72
2023/08/11 08:11:24;;;;;;;2.42;2.17;;;;;;;24.57;43.08;99772.22;5031558;28;20032;-72
2023/08/11 08:13:50;;;;;;;2.58;1.98;;;;;;;24.49;43.49;99769.44;5045977;28;20504;-72
2023/08/11 08:16:15;;;;;;;4.32;2.28;;;;;;;24.56;43.46;99770.59;5047578;28;20111;-72
2023/08/11 08:18:41;;;;;;;2.03;1.90;;;;;;;24.86;42.95;99757.63;5039513;28;20025;-72
2023/08/11 08:21:06;;;;;;;1.58;1.48;;;;;;;24.50;41.93;99764.53;5034018;28;20025;-72
2023/08/11 08:23:32;;;;;;;3.30;2.47;;;;;;;24.37;42.41;99770.78;5035303;28;20764;-72
2023/08/11 08:25:58;;;;;;;5.40;3.17;;;;;;;24.99;42.17;99770.16;5028216;28;20032;-72
2023/08/11 08:28:24;;;;;;;3.50;1.65;;;;;;;25.48;40.97;99769.13;5024970;28;20116;-72
2023/08/11 08:30:50;;;;;;;11.95;6.32;;;;;;;25.87;40.37;99769.78;5045383;28;20041;-72
2023/08/11 08:33:15;;;;;;;16.02;2.63;;;;;;;25.87;39.94;99772.63;5044643;28;20025;-72
2023/08/11 08:35:41;;;;;;;2.03;1.73;;;;;;;26.08;39.00;99762.91;5027769;28;20022;-75
2023/08/11 08:38:06;;;;;;;2.38;1.92;;;;;;;26.34;39.38;99766.16;5053925;28;20032;-76
2023/08/11 08:40:35;;;;;;;3.55;2.22;;;;;;;26.07;39.49;99764.16;5043085;28;20130;-73
2023/08/11 08:43:02;;;;;;;3.08;2.00;;;;;;;25.95;39.42;99759.03;5031768;28;20100;-72
2023/08/11 08:45:28;;;;;;;2.78;1.90;;;;;;;26.45;39.55;99765.97;5032452;28;20033;-72
2023/08/11 08:47:57;;;;;;;2.67;2.25;;;;;;;26.39;38.47;99762.00;5055871;28;20167;-72
2023/08/11 08:50:23;;;;;;;2.58;2.28;;;;;;;26.48;37.55;99760.16;5030159;28;20063;-73
2023/08/11 08:52:50;;;;;;;2.17;1.98;;;;;;;26.48;37.41;99760.16;5029569;28;20026;-72
2023/08/11 08:55:16;;;;;;;1.80;1.60;;;;;;;26.53;36.74;99758.03;5029646;28;20021;-73
2023/08/11 08:57:41;;;;;;;1.92;1.77;;;;;;;26.40;36.74;99760.75;5036782;28;20022;-73
2023/08/11 09:00:08;;;;;;;2.35;1.70;;;;;;;26.51;38.18;99766.28;5029958;28;20444;-73
2023/08/11 09:02:34;;;;;;;2.67;1.85;;;;;;;26.81;36.35;99765.28;5035077;28;20025;-72
2023/08/11 09:04:59;;;;;;;3.35;1.90;;;;;;;27.18;36.02;99766.19;5031132;28;20502;-73
2023/08/11 09:07:25;;;;;;;1.73;1.63;;;;;;;26.42;36.89;99764.78;5031656;28;20033;-73
2023/08/11 09:09:51;;;;;;;1.85;1.67;;;;;;;26.80;36.53;99757.13;5030666;28;20045;-73
2023/08/11 09:12:16;;;;;;;1.60;1.50;;;;;;;26.30;36.43;99756.81;5053940;28;20040;-73
2023/08/11 09:14:42;;;;;;;2.05;1.88;;;;;;;26.99;38.37;99758.41;5030280;28;20029;-72
2023/08/11 09:17:08;;;;;;;1.88;1.52;;;;;;;26.63;35.86;99760.72;5036965;28;20037;-73
2023/08/11 09:19:34;;;;;;;2.53;2.03;;;;;;;26.70;36.43;99756.06;5045368;28;20440;-72
2023/08/11 09:22:00;;;;;;;2.17;1.90;;;;;;;27.10;35.66;99747.53;5040642;28;20032;-73
2023/08/11 09:24:28;;;;;;;3.72;2.35;;;;;;;27.55;36.15;99745.31;5065376;28;20028;-78
2023/08/11 09:26:54;;;;;;;18.75;2.58;;;;;;;27.75;35.96;99733.75;5042818;28;20029;-72
2023/08/11 09:29:19;;;;;;;2.22;1.80;;;;;;;27.44;36.37;99746.34;5036904;28;20538;-75
2023/08/11 09:31:52;;;;;;;2.20;1.70;;;;;;;27.68;36.67;99739.69;5047369;28;20083;-72
2023/08/11 09:34:19;;;;;;;3.70;2.17;;;;;;;27.54;35.63;99738.78;5032632;28;20060;-73
2023/08/11 09:36:46;;;;;;;2.88;1.83;;;;;;;27.67;35.31;99733.13;5040472;28;20043;-73
2023/08/11 09:39:12;;;;;;;4.20;2.05;;;;;;;27.56;35.41;99727.66;5043569;28;20060;-72
2023/08/11 09:41:42;;;;;;;1.58;1.48;;;;;;;27.36;35.57;99741.22;5049615;28;20053;-72
2023/08/11 09:44:09;;;;;;;2.00;1.80;;;;;;;27.37;35.75;99742.81;5022734;28;20036;-71
2023/08/11 09:46:38;;;;;;;4.82;1.77;;;;;;;27.64;35.69;99736.09;5042688;28;20031;-73
2023/08/11 09:49:07;;;;;;;6.53;2.55;;;;;;;28.14;34.49;99736.91;5042011;28;20033;-74
2023/08/11 09:51:37;;;;;;;1.77;1.50;;;;;;;27.87;33.85;99724.44;5036288;28;20045;-72
2023/08/11 09:54:06;;;;;;;;;;;;;;;28.15;32.51;99732.75;5043118;28;20502;-73
2023/08/11 09:56:41;;;;;;;1.92;1.80;;;;;;;27.55;32.12;99730.94;5035451;28;19931;-73
2023/08/11 09:59:19;;;;;;;2.47;1.38;;;;;;;27.29;31.30;99737.25;5043851;28;20029;-73
2023/08/11 10:01:45;;;;;;;3.00;1.42;;;;;;;27.64;30.42;99728.28;5034248;28;20562;-74
2023/08/11 10:04:18;;;;;;;2.30;1.30;;;;;;;27.78;31.08;99732.88;5028934;28;20484;-73
2023/08/11 10:06:48;;;;;;;2.80;1.52;;;;;;;28.12;30.69;99740.25;5033634;28;20029;-73
2023/08/11 10:09:15;;;;;;;1.50;1.38;;;;;;;27.03;31.33;99739.06;5036571;28;20099;-73
2023/08/11 10:11:43;;;;;;;1.73;1.50;;;;;;;27.69;31.29;99716.25;5036333;28;20037;-72
2023/08/11 10:14:13;;;;;;;3.45;2.00;;;;;;;27.65;31.29;99720.47;5036944;28;20045;-73
2023/08/11 10:16:39;;;;;;;4.35;1.63;;;;;;;27.15;31.36;99726.06;5041090;28;20029;-73
2023/08/11 10:19:06;;;;;;;5.97;1.52;;;;;;;27.49;31.34;99721.25;5036473;28;20389;-72
2023/08/11 10:21:31;;;;;;;1.52;1.20;;;;;;;27.60;31.02;99714.00;5041741;28;20033;-73
2023/08/11 10:23:57;;;;;;;2.45;1.17;;;;;;;28.03;30.39;99714.19;5050213;28;20472;-72
2023/08/11 10:26:24;;;;;;;1.58;1.00;;;;;;;27.80;30.20;99718.03;5032544;28;20025;-73
2023/08/11 10:28:51;;;;;;;3.95;1.35;;;;;;;28.38;29.04;99720.28;5037917;28;20018;-72
2023/08/11 10:31:16;;;;;;;1.75;1.10;;;;;;;28.45;28.52;99710.66;5035809;28;20039;-73
2023/08/11 10:33:49;;;;;;;2.05;1.27;;;;;;;28.53;31.25;99711.25;5038582;28;20029;-73
2023/08/11 10:36:19;;;;;;;3.83;1.42;;;;;;;28.76;27.97;99713.06;5040347;28;20506;-73
2023/08/11 10:38:58;;;;;;;;;;;;;;;28.72;28.80;99712.34;5033302;28;20139;-73
2023/08/11 10:41:23;;;;;;;1.38;1.05;;;;;;;29.31;28.63;99694.19;5033108;28;20407;-72
2023/08/11 10:43:49;;;;;;;1.48;1.20;;;;;;;28.81;28.03;99703.91;5048126;28;20021;-72
2023/08/11 10:46:29;;;;;;;1.30;1.10;;;;;;;29.17;30.07;99704.88;5039264;28;20021;-73
2023/08/11 10:48:58;;;;;;;1.35;1.10;;;;;;;29.30;27.33;99702.03;5042562;28;20070;-73
2023/08/11 10:51:31;;;;;;;1.27;1.05;;;;;;;28.77;27.72;99702.38;5048056;28;20039;-72
2023/08/11 10:54:05;;;;;;;1.65;1.10;;;;;;;29.29;28.18;99700.44;5030547;28;20501;-76
2023/08/11 10:56:41;;;;;;;1.88;1.55;;;;;;;29.35;28.55;99692.03;5036188;28;20029;-74
2023/08/11 10:59:16;;;;;;;1.67;1.35;;;;;;;29.48;28.91;99697.78;5027276;28;20032;-77
2023/08/11 11:01:53;;;;;;;1.33;1.20;;;;;;;29.51;28.24;99688.25;5038350;28;20053;-78
2023/08/11 11:04:23;;;;;;;2.88;1.42;;;;;;;29.75;29.59;99694.44;5037645;28;20056;-74
2023/08/11 11:06:53;;;;;;;2.60;1.80;;;;;;;29.64;27.61;99688.22;5037510;28;20064;-79
2023/08/11 11:09:19;;;;;;;3.28;1.77;;;;;;;29.97;30.48;99693.72;5032830;28;20097;-75
2023/08/11 11:11:45;;;;;;;1.70;1.60;;;;;;;29.64;27.49;99691.09;5030652;28;20021;-76
2023/08/11 11:14:13;;;;;;;3.72;1.45;;;;;;;29.53;28.32;99689.38;5032621;28;20120;-76
2023/08/11 11:16:39;;;;;;;1.30;1.13;;;;;;;29.81;28.67;99691.78;5040610;28;20030;-83
2023/08/11 11:19:06;;;;;;;2.97;1.70;;;;;;;29.88;28.25;99677.13;5028792;28;20036;-81
2023/08/11 11:21:32;;;;;;;1.38;1.27;;;;;;;30.56;27.94;99678.91;5043518;28;20026;-81
2023/08/11 11:23:59;;;;;;;1.65;1.15;;;;;;;30.85;27.00;99685.69;5022661;28;20383;-81
2023/08/11 11:26:26;;;;;;;1.30;1.20;;;;;;;30.60;26.44;99681.66;5017801;28;20084;-81
2023/08/11 11:28:54;;;;;;;4.45;1.33;;;;;;;30.48;26.80;99683.31;5024325;28;20029;-81
2023/08/11 11:31:22;;;;;;;3.70;1.67;;;;;;;30.47;26.58;99675.94;5019396;28;20057;-81